createdAt,value
2017-11-14T00:00:14.418Z,1013.83
2017-11-14T00:01:14.396Z,1013.86
2017-11-14T00:02:14.379Z,1013.85
2017-11-14T00:03:14.359Z,1013.84
2017-11-14T00:04:14.334Z,1013.86
2017-11-14T00:05:14.313Z,1013.83
2017-11-14T00:06:14.293Z,1013.83
2017-11-14T00:07:14.268Z,1013.84
2017-11-14T00:08:14.249Z,1013.85
2017-11-14T00:09:14.225Z,1013.85
2017-11-14T00:10:14.205Z,1013.83
2017-11-14T00:11:14.184Z,1013.85
2017-11-14T00:12:14.163Z,1013.88
2017-11-14T00:13:14.142Z,1013.86
2017-11-14T00:14:14.119Z,1013.88
2017-11-14T00:15:14.099Z,1013.86
2017-11-14T00:16:14.080Z,1013.87
2017-11-14T00:17:14.060Z,1013.85
2017-11-14T00:18:14.033Z,1013.85
2017-11-14T00:19:14.013Z,1013.84
2017-11-14T00:20:13.990Z,1013.87
2017-11-14T00:21:13.970Z,1013.87
2017-11-14T00:22:13.971Z,1013.87
2017-11-14T00:23:13.927Z,1013.86
2017-11-14T00:24:13.908Z,1013.89
2017-11-14T00:25:13.907Z,1013.82
2017-11-14T00:26:13.867Z,1013.84
2017-11-14T00:27:13.843Z,1013.88
2017-11-14T00:28:13.822Z,1013.88
2017-11-14T00:29:13.798Z,1013.93
2017-11-14T00:30:13.778Z,1013.9
2017-11-14T00:31:13.757Z,1013.91
2017-11-14T00:32:13.732Z,1013.87
2017-11-14T00:33:13.766Z,1013.84
2017-11-14T00:34:13.690Z,1013.85
2017-11-14T00:35:13.668Z,1013.88
2017-11-14T00:36:13.646Z,1013.89
2017-11-14T00:37:13.624Z,1013.89
2017-11-14T00:38:13.657Z,1013.87
2017-11-14T00:39:13.582Z,1013.87
2017-11-14T00:40:13.567Z,1013.87
2017-11-14T00:41:13.541Z,1013.84
2017-11-14T00:42:13.517Z,1013.89
2017-11-14T00:43:13.497Z,1013.86
2017-11-14T00:44:13.474Z,1013.92
2017-11-14T00:45:13.453Z,1013.94
2017-11-14T00:46:13.430Z,1013.99
2017-11-14T00:47:13.410Z,1013.95
2017-11-14T00:48:13.390Z,1013.94
2017-11-14T00:49:13.367Z,1013.96
2017-11-14T00:50:13.345Z,1013.97
2017-11-14T00:51:13.325Z,1013.96
2017-11-14T00:52:13.301Z,1013.96
2017-11-14T00:53:13.282Z,1013.92
2017-11-14T00:54:13.258Z,1013.98
2017-11-14T00:55:13.237Z,1014.01
2017-11-14T00:56:13.216Z,1014
2017-11-14T00:57:13.195Z,1013.92
2017-11-14T00:58:13.170Z,1013.97
2017-11-14T00:59:13.148Z,1013.97
2017-11-14T01:00:13.126Z,1013.98
2017-11-14T01:01:13.105Z,1013.95
2017-11-14T01:02:13.085Z,1013.97
2017-11-14T01:03:13.062Z,1013.95
2017-11-14T01:04:13.054Z,1013.99
2017-11-14T01:05:13.061Z,1013.98
2017-11-14T01:06:12.998Z,1013.99
2017-11-14T01:07:12.975Z,1013.98
2017-11-14T01:08:12.955Z,1014.01
2017-11-14T01:09:12.931Z,1014.04
2017-11-14T01:10:12.912Z,1014.04
2017-11-14T01:11:12.888Z,1014.06
2017-11-14T01:12:12.874Z,1014.08
2017-11-14T01:13:12.845Z,1014.1
2017-11-14T01:14:12.826Z,1014.08
2017-11-14T01:15:12.805Z,1014.11
2017-11-14T01:16:12.781Z,1014.12
2017-11-14T01:17:12.761Z,1014.1
2017-11-14T01:18:12.738Z,1014.15
2017-11-14T01:19:12.767Z,1014.1
2017-11-14T01:20:12.695Z,1014.18
2017-11-14T01:21:12.673Z,1014.15
2017-11-14T01:22:12.654Z,1014.17
2017-11-14T01:23:12.633Z,1014.16
2017-11-14T01:24:12.608Z,1014.13
2017-11-14T01:25:12.588Z,1014.19
2017-11-14T01:26:12.567Z,1014.08
2017-11-14T01:27:12.543Z,1014.12
2017-11-14T01:28:12.535Z,1014.13
2017-11-14T01:29:12.501Z,1014.1
2017-11-14T01:30:12.483Z,1014.09
2017-11-14T01:31:12.459Z,1014.1
2017-11-14T01:32:12.443Z,1014.12
2017-11-14T01:33:12.417Z,1014.16
2017-11-14T01:34:12.445Z,1014.13
2017-11-14T01:35:12.375Z,1014.13
2017-11-14T01:36:12.354Z,1014.15
2017-11-14T01:37:12.331Z,1014.16
2017-11-14T01:38:12.312Z,1014.16
2017-11-14T01:39:12.288Z,1014.18
2017-11-14T01:40:12.268Z,1014.11
2017-11-14T01:41:12.248Z,1014.16
2017-11-14T01:42:12.225Z,1014.12
2017-11-14T01:43:12.202Z,1014.09
2017-11-14T01:44:12.182Z,1014.1
2017-11-14T01:45:12.162Z,1014.1
2017-11-14T01:46:12.141Z,1014.13
2017-11-14T01:47:12.120Z,1014.1
2017-11-14T01:48:12.099Z,1014.13
2017-11-14T01:49:12.076Z,1014.17
2017-11-14T01:50:12.060Z,1014.12
2017-11-14T01:51:12.033Z,1014.09
2017-11-14T01:52:12.016Z,1014.08
2017-11-14T01:53:11.992Z,1014.08
2017-11-14T01:54:12.172Z,1014.08
2017-11-14T01:55:11.949Z,1014.09
2017-11-14T01:56:11.929Z,1014.05
2017-11-14T01:57:11.906Z,1014.04
2017-11-14T01:58:11.899Z,1014.06
2017-11-14T01:59:11.864Z,1014.03
2017-11-14T02:00:11.840Z,1014.03
2017-11-14T02:01:11.820Z,1014.02
2017-11-14T02:02:11.802Z,1014.05
2017-11-14T02:03:11.779Z,1014.02
2017-11-14T02:04:11.759Z,1014.07
2017-11-14T02:05:11.763Z,1014.08
2017-11-14T02:06:11.715Z,1014.09
2017-11-14T02:07:11.694Z,1014.03
2017-11-14T02:08:11.670Z,1014.01
2017-11-14T02:09:11.652Z,1014.06
2017-11-14T02:10:11.628Z,1014.06
2017-11-14T02:11:11.607Z,1014.08
2017-11-14T02:12:11.584Z,1014.1
2017-11-14T02:13:11.563Z,1014.11
2017-11-14T02:14:11.544Z,1014.13
2017-11-14T02:15:11.523Z,1014.13
2017-11-14T02:16:11.511Z,1014.11
2017-11-14T02:17:11.479Z,1014.08
2017-11-14T02:18:11.461Z,1014.08
2017-11-14T02:19:11.433Z,1014.11
2017-11-14T02:20:11.413Z,1014.13
2017-11-14T02:21:11.401Z,1014.11
2017-11-14T02:22:11.375Z,1014.11
2017-11-14T02:23:11.370Z,1014.11
2017-11-14T02:24:11.339Z,1014.08
2017-11-14T02:25:11.308Z,1014.06
2017-11-14T02:26:11.285Z,1014.06
2017-11-14T02:27:11.262Z,1014.11
2017-11-14T02:28:11.243Z,1014.09
2017-11-14T02:29:11.219Z,1014.1
2017-11-14T02:30:11.199Z,1014.16
2017-11-14T02:31:11.179Z,1014.15
2017-11-14T02:32:11.160Z,1014.15
2017-11-14T02:33:11.133Z,1014.16
2017-11-14T02:34:11.111Z,1014.19
2017-11-14T02:35:11.142Z,1014.15
2017-11-14T02:36:11.070Z,1014.14
2017-11-14T02:37:11.049Z,1014.19
2017-11-14T02:38:11.029Z,1014.13
2017-11-14T02:39:11.004Z,1014.18
2017-11-14T02:40:10.983Z,1014.2
2017-11-14T02:41:10.959Z,1014.19
2017-11-14T02:42:10.938Z,1014.18
2017-11-14T02:43:10.924Z,1014.17
2017-11-14T02:44:10.895Z,1014.17
2017-11-14T02:45:10.873Z,1014.17
2017-11-14T02:46:10.852Z,1014.15
2017-11-14T02:47:10.832Z,1014.13
2017-11-14T02:48:10.809Z,1014.12
2017-11-14T02:49:10.787Z,1014.16
2017-11-14T02:50:10.768Z,1014.16
2017-11-14T02:51:10.743Z,1014.14
2017-11-14T02:52:10.733Z,1014.11
2017-11-14T02:53:10.704Z,1014.14
2017-11-14T02:54:10.678Z,1014.12
2017-11-14T02:55:10.656Z,1014.14
2017-11-14T02:56:10.643Z,1014.1
2017-11-14T02:57:10.614Z,1014.1
2017-11-14T02:58:10.593Z,1014.06
2017-11-14T02:59:10.574Z,1014.11
2017-11-14T03:00:10.550Z,1014.13
2017-11-14T03:01:10.527Z,1014.14
2017-11-14T03:02:10.549Z,1014.13
2017-11-14T03:03:10.484Z,1014.21
2017-11-14T03:04:10.467Z,1014.23
2017-11-14T03:05:10.441Z,1014.17
2017-11-14T03:06:10.419Z,1014.21
2017-11-14T03:07:10.400Z,1014.22
2017-11-14T03:08:10.376Z,1014.23
2017-11-14T03:09:10.356Z,1014.26
2017-11-14T03:10:10.334Z,1014.25
2017-11-14T03:11:10.311Z,1014.28
2017-11-14T03:12:10.291Z,1014.26
2017-11-14T03:13:10.269Z,1014.22
2017-11-14T03:14:10.248Z,1014.24
2017-11-14T03:15:10.228Z,1014.24
2017-11-14T03:16:10.206Z,1014.23
2017-11-14T03:17:10.181Z,1014.23
2017-11-14T03:18:10.160Z,1014.24
2017-11-14T03:19:10.144Z,1014.24
2017-11-14T03:20:10.117Z,1014.24
2017-11-14T03:21:10.105Z,1014.28
2017-11-14T03:22:10.077Z,1014.27
2017-11-14T03:23:10.053Z,1014.3
2017-11-14T03:24:10.031Z,1014.32
2017-11-14T03:25:10.009Z,1014.29
2017-11-14T03:26:09.988Z,1014.29
2017-11-14T03:27:09.970Z,1014.28
2017-11-14T03:28:09.947Z,1014.31
2017-11-14T03:29:09.926Z,1014.29
2017-11-14T03:30:09.903Z,1014.3
2017-11-14T03:31:09.930Z,1014.25
2017-11-14T03:32:09.863Z,1014.26
2017-11-14T03:33:09.837Z,1014.33
2017-11-14T03:34:09.821Z,1014.29
2017-11-14T03:35:09.794Z,1014.28
2017-11-14T03:36:09.779Z,1014.31
2017-11-14T03:37:09.751Z,1014.34
2017-11-14T03:38:09.728Z,1014.3
2017-11-14T03:39:09.717Z,1014.31
2017-11-14T03:40:09.688Z,1014.31
2017-11-14T03:41:09.663Z,1014.32
2017-11-14T03:42:09.644Z,1014.31
2017-11-14T03:43:09.623Z,1014.35
2017-11-14T03:44:09.600Z,1014.35
2017-11-14T03:45:09.579Z,1014.33
2017-11-14T03:46:09.555Z,1014.31
2017-11-14T03:47:09.540Z,1014.27
2017-11-14T03:48:09.514Z,1014.29
2017-11-14T03:49:09.493Z,1014.33
2017-11-14T03:50:09.473Z,1014.32
2017-11-14T03:51:09.449Z,1014.3
2017-11-14T03:52:09.426Z,1014.31
2017-11-14T03:53:09.405Z,1014.33
2017-11-14T03:54:09.395Z,1014.37
2017-11-14T03:55:09.360Z,1014.33
2017-11-14T03:56:09.343Z,1014.34
2017-11-14T03:57:09.324Z,1014.4
2017-11-14T03:58:09.294Z,1014.34
2017-11-14T03:59:09.276Z,1014.35
2017-11-14T04:00:09.253Z,1014.31
2017-11-14T04:01:09.231Z,1014.36
2017-11-14T04:02:09.210Z,1014.35
2017-11-14T04:03:09.189Z,1014.36
2017-11-14T04:04:09.171Z,1014.36
2017-11-14T04:05:09.152Z,1014.39
2017-11-14T04:06:09.123Z,1014.38
2017-11-14T04:07:09.103Z,1014.38
2017-11-14T04:08:09.285Z,1014.38
2017-11-14T04:09:09.059Z,1014.41
2017-11-14T04:10:09.040Z,1014.38
2017-11-14T04:11:09.016Z,1014.43
2017-11-14T04:12:08.994Z,1014.36
2017-11-14T04:13:08.972Z,1014.36
2017-11-14T04:14:08.951Z,1014.37
2017-11-14T04:15:08.928Z,1014.4
2017-11-14T04:16:08.909Z,1014.36
2017-11-14T04:17:08.885Z,1014.35
2017-11-14T04:18:08.864Z,1014.35
2017-11-14T04:19:08.844Z,1014.28
2017-11-14T04:20:08.822Z,1014.32
2017-11-14T04:21:08.801Z,1014.29
2017-11-14T04:22:08.779Z,1014.27
2017-11-14T04:23:08.757Z,1014.3
2017-11-14T04:24:08.736Z,1014.28
2017-11-14T04:25:08.723Z,1014.31
2017-11-14T04:26:08.699Z,1014.36
2017-11-14T04:27:08.720Z,1014.34
2017-11-14T04:28:08.649Z,1014.32
2017-11-14T04:29:08.639Z,1014.32
2017-11-14T04:30:08.606Z,1014.37
2017-11-14T04:31:08.584Z,1014.38
2017-11-14T04:32:08.570Z,1014.4
2017-11-14T04:33:08.544Z,1014.41
2017-11-14T04:34:08.519Z,1014.42
2017-11-14T04:35:08.499Z,1014.4
2017-11-14T04:36:08.477Z,1014.4
2017-11-14T04:37:08.455Z,1014.42
2017-11-14T04:38:08.434Z,1014.37
2017-11-14T04:39:08.412Z,1014.4
2017-11-14T04:40:08.389Z,1014.39
2017-11-14T04:41:08.368Z,1014.36
2017-11-14T04:42:08.348Z,1014.37
2017-11-14T04:43:08.327Z,1014.37
2017-11-14T04:44:08.318Z,1014.38
2017-11-14T04:45:08.281Z,1014.38
2017-11-14T04:46:08.275Z,1014.37
2017-11-14T04:47:08.245Z,1014.37
2017-11-14T04:48:08.217Z,1014.37
2017-11-14T04:49:08.195Z,1014.33
2017-11-14T04:50:08.178Z,1014.32
2017-11-14T04:51:08.152Z,1014.32
2017-11-14T04:52:08.131Z,1014.31
2017-11-14T04:53:08.108Z,1014.34
2017-11-14T04:54:08.089Z,1014.29
2017-11-14T04:55:08.066Z,1014.32
2017-11-14T04:56:08.047Z,1014.25
2017-11-14T04:57:08.022Z,1014.27
2017-11-14T04:58:08.001Z,1014.27
2017-11-14T04:59:07.998Z,1014.32
2017-11-14T05:00:07.959Z,1014.29
2017-11-14T05:01:07.942Z,1014.26
2017-11-14T05:02:07.914Z,1014.26
2017-11-14T05:03:07.891Z,1014.27
2017-11-14T05:04:07.870Z,1014.23
2017-11-14T05:05:07.848Z,1014.25
2017-11-14T05:06:07.828Z,1014.23
2017-11-14T05:07:07.829Z,1014.25
2017-11-14T05:08:07.785Z,1014.26
2017-11-14T05:09:07.761Z,1014.25
2017-11-14T05:10:07.743Z,1014.24
2017-11-14T05:11:07.717Z,1014.29
2017-11-14T05:12:07.696Z,1014.27
2017-11-14T05:13:07.676Z,1014.27
2017-11-14T05:14:07.652Z,1014.26
2017-11-14T05:15:07.632Z,1014.26
2017-11-14T05:16:07.609Z,1014.3
2017-11-14T05:17:07.586Z,1014.27
2017-11-14T05:18:07.566Z,1014.31
2017-11-14T05:19:07.543Z,1014.31
2017-11-14T05:20:07.523Z,1014.26
2017-11-14T05:21:07.499Z,1014.28
2017-11-14T05:22:07.478Z,1014.26
2017-11-14T05:23:07.460Z,1014.23
2017-11-14T05:24:07.434Z,1014.28
2017-11-14T05:25:07.413Z,1014.3
2017-11-14T05:26:07.391Z,1014.26
2017-11-14T05:27:07.376Z,1014.3
2017-11-14T05:28:07.347Z,1014.31
2017-11-14T05:29:07.327Z,1014.28
2017-11-14T05:30:07.321Z,1014.34
2017-11-14T05:31:07.281Z,1014.29
2017-11-14T05:32:07.261Z,1014.35
2017-11-14T05:33:07.237Z,1014.31
2017-11-14T05:34:07.216Z,1014.3
2017-11-14T05:35:07.197Z,1014.27
2017-11-14T05:36:07.172Z,1014.31
2017-11-14T05:37:07.150Z,1014.33
2017-11-14T05:38:07.129Z,1014.37
2017-11-14T05:39:07.106Z,1014.33
2017-11-14T05:40:07.086Z,1014.34
2017-11-14T05:41:07.065Z,1014.34
2017-11-14T05:42:07.044Z,1014.31
2017-11-14T05:43:07.020Z,1014.32
2017-11-14T05:44:06.997Z,1014.33
2017-11-14T05:45:06.980Z,1014.34
2017-11-14T05:46:06.958Z,1014.39
2017-11-14T05:47:06.933Z,1014.4
2017-11-14T05:48:06.910Z,1014.42
2017-11-14T05:49:06.889Z,1014.42
2017-11-14T05:50:06.870Z,1014.45
2017-11-14T05:51:06.842Z,1014.49
2017-11-14T05:52:06.822Z,1014.47
2017-11-14T05:53:06.802Z,1014.48
2017-11-14T05:54:06.781Z,1014.52
2017-11-14T05:55:06.759Z,1014.53
2017-11-14T05:56:06.735Z,1014.49
2017-11-14T05:57:06.713Z,1014.52
2017-11-14T05:58:06.689Z,1014.53
2017-11-14T05:59:06.720Z,1014.55
2017-11-14T06:00:06.648Z,1014.58
2017-11-14T06:01:06.627Z,1014.56
2017-11-14T06:02:06.604Z,1014.57
2017-11-14T06:03:06.583Z,1014.59
2017-11-14T06:04:06.578Z,1014.59
2017-11-14T06:05:06.539Z,1014.66
2017-11-14T06:06:06.517Z,1014.66
2017-11-14T06:07:06.495Z,1014.7
2017-11-14T06:08:06.476Z,1014.7
2017-11-14T06:09:06.450Z,1014.65
2017-11-14T06:10:06.431Z,1014.65
2017-11-14T06:11:06.408Z,1014.67
2017-11-14T06:12:06.388Z,1014.63
2017-11-14T06:13:06.362Z,1014.64
2017-11-14T06:14:06.342Z,1014.63
2017-11-14T06:15:06.320Z,1014.59
2017-11-14T06:16:06.296Z,1014.65
2017-11-14T06:17:06.276Z,1014.65
2017-11-14T06:18:06.256Z,1014.64
2017-11-14T06:19:06.281Z,1014.62
2017-11-14T06:20:06.209Z,1014.62
2017-11-14T06:21:06.188Z,1014.64
2017-11-14T06:22:06.166Z,1014.63
2017-11-14T06:23:06.144Z,1014.62
2017-11-14T06:24:06.122Z,1014.64
2017-11-14T06:25:06.098Z,1014.65
2017-11-14T06:26:06.081Z,1014.67
2017-11-14T06:27:06.056Z,1014.63
2017-11-14T06:28:06.046Z,1014.67
2017-11-14T06:29:06.014Z,1014.68
2017-11-14T06:30:05.994Z,1014.71
2017-11-14T06:31:05.970Z,1014.71
2017-11-14T06:32:05.948Z,1014.78
2017-11-14T06:33:05.926Z,1014.79
2017-11-14T06:34:05.912Z,1014.84
2017-11-14T06:35:05.883Z,1014.83
2017-11-14T06:36:05.859Z,1014.85
2017-11-14T06:37:05.844Z,1014.92
2017-11-14T06:38:05.823Z,1014.88
2017-11-14T06:39:05.796Z,1014.88
2017-11-14T06:40:05.772Z,1014.92
2017-11-14T06:41:05.751Z,1014.91
2017-11-14T06:42:05.731Z,1014.96
2017-11-14T06:43:05.708Z,1014.92
2017-11-14T06:44:05.686Z,1014.91
2017-11-14T06:45:05.663Z,1014.94
2017-11-14T06:46:05.644Z,1014.97
2017-11-14T06:47:05.621Z,1014.99
2017-11-14T06:48:05.601Z,1014.98
2017-11-14T06:49:05.576Z,1015
2017-11-14T06:50:05.557Z,1014.96
2017-11-14T06:51:05.533Z,1014.94
2017-11-14T06:52:05.512Z,1014.99
2017-11-14T06:53:05.491Z,1015
2017-11-14T06:54:05.472Z,1014.97
2017-11-14T06:55:05.451Z,1014.97
2017-11-14T06:56:05.427Z,1014.97
2017-11-14T06:57:05.406Z,1014.96
2017-11-14T06:58:05.385Z,1014.99
2017-11-14T06:59:05.363Z,1015.01
2017-11-14T07:00:05.344Z,1015.03
2017-11-14T07:01:05.320Z,1015.04
2017-11-14T07:02:05.298Z,1015.06
2017-11-14T07:03:05.275Z,1015.03
2017-11-14T07:04:05.262Z,1015.04
2017-11-14T07:05:05.234Z,1015.04
2017-11-14T07:06:05.213Z,1015.07
2017-11-14T07:07:05.191Z,1015.06
2017-11-14T07:08:05.168Z,1015.08
2017-11-14T07:09:05.148Z,1015.07
2017-11-14T07:10:05.127Z,1015.03
2017-11-14T07:11:05.105Z,1015.01
2017-11-14T07:12:05.084Z,1015.03
2017-11-14T07:13:05.063Z,1015.02
2017-11-14T07:14:05.041Z,1014.99
2017-11-14T07:15:05.024Z,1015.02
2017-11-14T07:16:05.001Z,1014.94
2017-11-14T07:17:04.980Z,1014.94
2017-11-14T07:18:04.965Z,1015
2017-11-14T07:19:04.935Z,1015.06
2017-11-14T07:20:04.913Z,1015.05
2017-11-14T07:21:04.900Z,1015.07
2017-11-14T07:22:04.876Z,1015.09
2017-11-14T07:23:04.851Z,1015.08
2017-11-14T07:24:04.832Z,1015.07
2017-11-14T07:25:04.807Z,1015.04
2017-11-14T07:26:04.788Z,1014.97
2017-11-14T07:27:04.768Z,1015.03
2017-11-14T07:28:04.746Z,1014.99
2017-11-14T07:29:04.739Z,1015.05
2017-11-14T07:30:04.759Z,1015.03
2017-11-14T07:31:04.681Z,1015
2017-11-14T07:32:04.660Z,1015.05
2017-11-14T07:33:04.640Z,1015
2017-11-14T07:34:04.624Z,1015.05
2017-11-14T07:35:04.598Z,1015.07
2017-11-14T07:36:04.577Z,1015.06
2017-11-14T07:37:04.557Z,1015.04
2017-11-14T07:38:04.536Z,1015.1
2017-11-14T07:39:04.516Z,1015.09
2017-11-14T07:40:04.496Z,1015.17
2017-11-14T07:41:04.475Z,1015.13
2017-11-14T07:42:04.451Z,1015.13
2017-11-14T07:43:04.430Z,1015.19
2017-11-14T07:44:04.417Z,1015.22
2017-11-14T07:45:04.388Z,1015.19
2017-11-14T07:46:04.371Z,1015.15
2017-11-14T07:47:04.346Z,1015.16
2017-11-14T07:48:04.325Z,1015.19
2017-11-14T07:49:04.307Z,1015.18
2017-11-14T07:50:04.286Z,1015.2
2017-11-14T07:51:04.264Z,1015.14
2017-11-14T07:52:04.244Z,1015.18
2017-11-14T07:53:04.225Z,1015.14
2017-11-14T07:54:04.203Z,1015.16
2017-11-14T07:55:04.385Z,1015.15
2017-11-14T07:56:04.161Z,1015.15
2017-11-14T07:57:04.142Z,1015.13
2017-11-14T07:58:04.124Z,1015.1
2017-11-14T07:59:04.116Z,1015.14
2017-11-14T08:00:04.081Z,1015.15
2017-11-14T08:01:04.060Z,1015.1
2017-11-14T08:02:04.040Z,1015.05
2017-11-14T08:03:04.020Z,1015.02
2017-11-14T08:04:04.001Z,1015.02
2017-11-14T08:05:03.982Z,1014.97
2017-11-14T08:06:03.963Z,1014.97
2017-11-14T08:07:03.941Z,1014.94
2017-11-14T08:08:03.921Z,1014.94
2017-11-14T08:09:03.901Z,1014.97
2017-11-14T08:10:03.883Z,1014.98
2017-11-14T08:11:03.913Z,1014.94
2017-11-14T08:12:03.839Z,1014.95
2017-11-14T08:13:03.827Z,1014.96
2017-11-14T08:14:03.801Z,1014.99
2017-11-14T08:15:03.780Z,1014.99
2017-11-14T08:16:03.810Z,1015
2017-11-14T08:17:03.740Z,1015
2017-11-14T08:18:03.722Z,1014.94
2017-11-14T08:19:03.701Z,1014.94
2017-11-14T08:20:03.680Z,1014.96
2017-11-14T08:21:03.662Z,1014.97
2017-11-14T08:22:03.639Z,1014.97
2017-11-14T08:23:03.625Z,1014.98
2017-11-14T08:24:03.603Z,1015
2017-11-14T08:25:03.581Z,1015.02
2017-11-14T08:26:03.610Z,1015.01
2017-11-14T08:27:03.539Z,1015.05
2017-11-14T08:28:03.522Z,1015.06
2017-11-14T08:29:03.500Z,1015.1
2017-11-14T08:30:03.480Z,1015.05
2017-11-14T08:31:03.461Z,1015.07
2017-11-14T08:32:03.441Z,1015.04
2017-11-14T08:33:03.422Z,1015.04
2017-11-14T08:34:03.404Z,1015.05
2017-11-14T08:35:03.379Z,1015.02
2017-11-14T08:36:03.417Z,1015.03
2017-11-14T08:37:03.343Z,1015.02
2017-11-14T08:38:03.323Z,1015.01
2017-11-14T08:39:03.301Z,1014.99
2017-11-14T08:40:03.289Z,1014.99
2017-11-14T08:41:03.265Z,1014.99
2017-11-14T08:42:03.248Z,1015.03
2017-11-14T08:43:03.238Z,1014.96
2017-11-14T08:44:03.203Z,1014.94
2017-11-14T08:45:03.184Z,1014.94
2017-11-14T08:46:03.214Z,1014.94
2017-11-14T08:47:03.145Z,1014.95
2017-11-14T08:48:03.126Z,1014.93
2017-11-14T08:49:03.128Z,1014.97
2017-11-14T08:50:03.084Z,1014.95
2017-11-14T08:51:03.065Z,1014.94
2017-11-14T08:52:03.047Z,1014.93
2017-11-14T08:53:03.027Z,1014.98
2017-11-14T08:54:03.006Z,1014.99
2017-11-14T08:55:02.987Z,1014.99
2017-11-14T08:56:02.971Z,1015
2017-11-14T08:57:02.951Z,1015.01
2017-11-14T08:58:02.929Z,1015.06
2017-11-14T08:59:02.909Z,1015.06
2017-11-14T09:00:02.891Z,1015.01
2017-11-14T09:01:02.871Z,1015.11
2017-11-14T09:02:02.853Z,1015.03
2017-11-14T09:03:02.834Z,1015.02
2017-11-14T09:04:02.814Z,1015.01
2017-11-14T09:05:02.797Z,1015
2017-11-14T09:06:02.776Z,1015.04
2017-11-14T09:07:02.754Z,1015.04
2017-11-14T09:08:02.738Z,1015.08
2017-11-14T09:09:02.717Z,1015.07
2017-11-14T09:10:02.708Z,1015.02
2017-11-14T09:11:02.676Z,1015.06
2017-11-14T09:12:02.655Z,1015.01
2017-11-14T09:13:02.637Z,1015.07
2017-11-14T09:14:02.622Z,1015.04
2017-11-14T09:15:02.604Z,1015.03
2017-11-14T09:16:02.578Z,1015.07
2017-11-14T09:17:02.562Z,1015.11
2017-11-14T09:18:02.542Z,1015.12
2017-11-14T09:19:02.519Z,1015.12
2017-11-14T09:20:02.504Z,1015.19
2017-11-14T09:21:02.483Z,1015.15
2017-11-14T09:22:02.464Z,1015.16
2017-11-14T09:23:02.443Z,1015.15
2017-11-14T09:24:02.425Z,1015.14
2017-11-14T09:25:02.405Z,1015.1
2017-11-14T09:26:02.390Z,1015.07
2017-11-14T09:27:02.369Z,1015.03
2017-11-14T09:28:02.347Z,1015.04
2017-11-14T09:29:02.330Z,1015.03
2017-11-14T09:30:02.309Z,1015.06
2017-11-14T09:31:02.293Z,1015.05
2017-11-14T09:32:02.276Z,1015.02
2017-11-14T09:33:02.255Z,1015.05
2017-11-14T09:34:02.271Z,1015
2017-11-14T09:35:02.215Z,1015.05
2017-11-14T09:36:02.207Z,1015.02
2017-11-14T09:37:02.181Z,1015.01
2017-11-14T09:38:02.160Z,1015.09
2017-11-14T09:39:02.145Z,1015.04
2017-11-14T09:40:02.129Z,1015.05
2017-11-14T09:41:02.105Z,1015.09
2017-11-14T09:42:02.086Z,1015.06
2017-11-14T09:43:02.069Z,1015.1
2017-11-14T09:44:02.050Z,1015.13
2017-11-14T09:45:02.030Z,1015.19
2017-11-14T09:46:02.014Z,1015.2
2017-11-14T09:47:01.993Z,1015.25
2017-11-14T09:48:01.975Z,1015.28
2017-11-14T09:49:01.956Z,1015.31
2017-11-14T09:50:01.940Z,1015.4
2017-11-14T09:51:01.918Z,1015.43
2017-11-14T09:52:01.900Z,1015.48
2017-11-14T09:53:01.883Z,1015.47
2017-11-14T09:54:01.867Z,1015.48
2017-11-14T09:55:02.088Z,1015.49
2017-11-14T09:56:01.844Z,1015.58
2017-11-14T09:57:01.807Z,1015.58
2017-11-14T09:58:01.788Z,1015.61
2017-11-14T09:59:01.773Z,1015.66
2017-11-14T10:00:01.753Z,1015.66
2017-11-14T10:01:01.734Z,1015.66
2017-11-14T10:02:01.770Z,1015.65
2017-11-14T10:03:01.699Z,1015.66
2017-11-14T10:04:01.677Z,1015.69
2017-11-14T10:05:01.666Z,1015.76
2017-11-14T10:06:01.640Z,1015.72
2017-11-14T10:07:01.673Z,1015.71
2017-11-14T10:08:01.606Z,1015.75
2017-11-14T10:09:01.586Z,1015.8
2017-11-14T10:10:01.569Z,1015.81
2017-11-14T10:11:01.554Z,1015.82
2017-11-14T10:12:01.534Z,1015.79
2017-11-14T10:13:01.514Z,1015.79
2017-11-14T10:14:01.499Z,1015.84
2017-11-14T10:15:01.482Z,1015.82
2017-11-14T10:16:01.463Z,1015.88
2017-11-14T10:17:01.494Z,1015.88
2017-11-14T10:18:01.429Z,1015.9
2017-11-14T10:19:01.408Z,1015.89
2017-11-14T10:20:01.397Z,1015.92
2017-11-14T10:21:01.371Z,1015.94
2017-11-14T10:22:01.353Z,1015.91
2017-11-14T10:23:01.337Z,1015.91
2017-11-14T10:24:01.320Z,1015.88
2017-11-14T10:25:01.301Z,1015.91
2017-11-14T10:26:01.286Z,1015.88
2017-11-14T10:27:01.334Z,1015.86
2017-11-14T10:28:01.252Z,1015.74
2017-11-14T10:29:01.234Z,1015.71
2017-11-14T10:30:01.214Z,1015.65
2017-11-14T10:31:01.199Z,1015.65
2017-11-14T10:32:01.179Z,1015.63
2017-11-14T10:33:01.161Z,1015.64
2017-11-14T10:34:01.146Z,1015.6
2017-11-14T10:35:01.127Z,1015.62
2017-11-14T10:36:01.111Z,1015.69
2017-11-14T10:37:01.165Z,1015.6
2017-11-14T10:38:01.077Z,1015.64
2017-11-14T10:39:01.060Z,1015.6
2017-11-14T10:40:01.042Z,1015.67
2017-11-14T10:41:01.028Z,1015.63
2017-11-14T10:42:01.009Z,1015.51
2017-11-14T10:43:00.991Z,1015.53
2017-11-14T10:44:00.977Z,1015.53
2017-11-14T10:45:00.958Z,1015.53
2017-11-14T10:46:00.942Z,1015.45
2017-11-14T10:47:00.926Z,1015.46
2017-11-14T10:48:00.909Z,1015.39
2017-11-14T10:49:00.893Z,1015.42
2017-11-14T10:50:00.876Z,1015.34
2017-11-14T10:51:00.862Z,1015.36
2017-11-14T10:52:00.847Z,1015.34
2017-11-14T10:53:00.832Z,1015.27
2017-11-14T10:54:00.812Z,1015.31
2017-11-14T10:55:00.806Z,1015.35
2017-11-14T10:56:00.791Z,1015.32
2017-11-14T10:57:00.767Z,1015.33
2017-11-14T10:58:00.752Z,1015.32
2017-11-14T10:59:00.735Z,1015.26
2017-11-14T11:00:00.721Z,1015.25
2017-11-14T11:01:00.724Z,1015.28
2017-11-14T11:02:00.689Z,1015.19
2017-11-14T11:03:00.671Z,1015.18
2017-11-14T11:04:00.655Z,1015.15
2017-11-14T11:05:00.638Z,1015.17
2017-11-14T11:06:00.623Z,1015.09
2017-11-14T11:07:00.605Z,1015.07
2017-11-14T11:08:00.590Z,1015.09
2017-11-14T11:09:00.576Z,1015.09
2017-11-14T11:10:00.558Z,1015.05
2017-11-14T11:11:00.541Z,1015.06
2017-11-14T11:12:00.530Z,1015.04
2017-11-14T11:13:00.512Z,1015.08
2017-11-14T11:14:00.495Z,1015.06
2017-11-14T11:15:00.478Z,1015.04
2017-11-14T11:16:00.466Z,1015.13
2017-11-14T11:17:00.446Z,1015.08
2017-11-14T11:18:00.432Z,1015.08
2017-11-14T11:19:00.421Z,1015.03
2017-11-14T11:20:00.402Z,1015.08
2017-11-14T11:21:00.383Z,1015.07
2017-11-14T11:22:00.367Z,1015.12
2017-11-14T11:23:00.354Z,1015.02
2017-11-14T11:24:00.340Z,1015.03
2017-11-14T11:25:00.320Z,1014.99
2017-11-14T11:26:00.305Z,1014.94
2017-11-14T11:27:00.294Z,1014.98
2017-11-14T11:28:00.272Z,1014.89
2017-11-14T11:29:00.256Z,1014.91
2017-11-14T11:30:00.240Z,1014.9
2017-11-14T11:31:00.230Z,1014.95
2017-11-14T11:32:00.210Z,1015.03
2017-11-14T11:33:00.193Z,1015.1
2017-11-14T11:34:00.177Z,1015.08
2017-11-14T11:35:00.162Z,1015.09
2017-11-14T11:36:00.145Z,1015.13
2017-11-14T11:37:00.130Z,1015.16
2017-11-14T11:38:00.119Z,1015.12
2017-11-14T11:39:00.098Z,1015.15
2017-11-14T11:40:00.083Z,1015.19
2017-11-14T11:41:00.065Z,1015.1
2017-11-14T11:42:00.055Z,1015.11
2017-11-14T11:43:00.043Z,1015.09
2017-11-14T11:44:00.019Z,1015.13
2017-11-14T11:45:00.010Z,1015.07
2017-11-14T11:45:59.988Z,1015.1
2017-11-14T11:46:59.970Z,1015.05
2017-11-14T11:47:59.953Z,1015.05
2017-11-14T11:48:59.937Z,1015.08
2017-11-14T11:49:59.924Z,1015.01
2017-11-14T11:50:59.908Z,1015.03
2017-11-14T11:51:59.892Z,1014.94
2017-11-14T11:52:59.929Z,1014.95
2017-11-14T11:53:59.860Z,1014.86
2017-11-14T11:55:00.052Z,1014.89
2017-11-14T11:55:59.852Z,1014.84
2017-11-14T11:56:59.817Z,1014.92
2017-11-14T11:57:59.802Z,1014.95
2017-11-14T11:58:59.785Z,1014.9
2017-11-14T11:59:59.769Z,1014.85
2017-11-14T12:00:59.756Z,1014.86
2017-11-14T12:01:59.743Z,1014.8
2017-11-14T12:02:59.724Z,1014.79
2017-11-14T12:03:59.711Z,1014.86
2017-11-14T12:04:59.695Z,1014.84
2017-11-14T12:05:59.679Z,1014.83
2017-11-14T12:06:59.665Z,1014.84
2017-11-14T12:07:59.652Z,1014.86